createdAt,value
2018-07-08T00:01:16.923Z,41.85
2018-07-08T00:03:44.558Z,41.49
2018-07-08T00:06:12.142Z,40.52
2018-07-08T00:08:39.713Z,40.67
2018-07-08T00:11:07.339Z,40.52
2018-07-08T00:13:34.959Z,41.02
2018-07-08T00:16:02.623Z,40.64
2018-07-08T00:18:30.202Z,41.07
2018-07-08T00:20:57.770Z,41.25
2018-07-08T00:23:25.390Z,40.94
2018-07-08T00:25:53.009Z,41.08
2018-07-08T00:28:20.694Z,41.19
2018-07-08T00:30:48.282Z,40.88
2018-07-08T00:33:15.816Z,40.64
2018-07-08T00:35:43.386Z,40.66
2018-07-08T00:38:10.962Z,40.95
2018-07-08T00:40:38.550Z,40.79
2018-07-08T00:43:06.235Z,40.75
2018-07-08T00:45:33.868Z,41.48
2018-07-08T00:48:01.435Z,41.93
2018-07-08T00:50:28.974Z,41.91
2018-07-08T00:52:56.559Z,41.19
2018-07-08T00:55:24.201Z,41.50
2018-07-08T00:57:51.758Z,42.18
2018-07-08T01:00:32.170Z,41.95
2018-07-08T01:03:00.699Z,42.07
2018-07-08T01:05:28.526Z,42.14
2018-07-08T01:07:56.152Z,42.68
2018-07-08T01:10:23.786Z,42.58
2018-07-08T01:12:51.372Z,42.78
2018-07-08T01:15:19.014Z,42.69
2018-07-08T01:17:46.654Z,43.02
2018-07-08T01:20:14.330Z,42.97
2018-07-08T01:22:41.906Z,43.32
2018-07-08T01:25:12.770Z,43.10
2018-07-08T01:27:40.615Z,43.46
2018-07-08T01:30:08.906Z,43.24
2018-07-08T01:32:36.476Z,42.97
2018-07-08T01:35:04.110Z,43.60
2018-07-08T01:37:32.078Z,43.71
2018-07-08T01:39:59.788Z,43.66
2018-07-08T01:42:27.966Z,43.75
2018-07-08T01:44:55.564Z,43.30
2018-07-08T01:47:23.255Z,43.82
2018-07-08T01:49:51.353Z,43.82
2018-07-08T01:52:18.894Z,43.86
2018-07-08T01:54:46.579Z,44.20
2018-07-08T01:57:14.213Z,44.15
2018-07-08T01:59:42.001Z,44.63
2018-07-08T02:02:09.607Z,44.24
2018-07-08T02:04:37.213Z,44.75
2018-07-08T02:07:04.819Z,44.74
2018-07-08T02:09:32.435Z,45.30
2018-07-08T02:12:00.052Z,45.25
2018-07-08T02:14:28.058Z,45.81
2018-07-08T02:16:55.702Z,45.73
2018-07-08T02:19:23.434Z,45.59
2018-07-08T02:21:51.936Z,45.43
2018-07-08T02:24:19.590Z,45.26
2018-07-08T02:26:47.266Z,45.67
2018-07-08T02:29:14.866Z,46.14
2018-07-08T02:31:42.723Z,46.32
2018-07-08T02:34:10.302Z,46.45
2018-07-08T02:36:37.963Z,46.43
2018-07-08T02:39:06.331Z,46.66
2018-07-08T02:41:33.975Z,46.52
2018-07-08T02:44:01.676Z,47.19
2018-07-08T02:46:29.326Z,46.86
2018-07-08T02:48:56.998Z,47.13
2018-07-08T02:51:24.562Z,47.14
2018-07-08T02:53:52.195Z,47.14
2018-07-08T02:56:19.726Z,47.81
2018-07-08T02:58:47.278Z,47.88
2018-07-08T03:01:14.847Z,47.69
2018-07-08T03:03:42.382Z,47.56
2018-07-08T03:06:09.990Z,47.80
2018-07-08T03:08:37.589Z,48.19
2018-07-08T03:11:05.414Z,48.33
2018-07-08T03:13:32.959Z,48.31
2018-07-08T03:16:00.526Z,47.93
2018-07-08T03:18:28.042Z,48.50
2018-07-08T03:20:55.606Z,48.15
2018-07-08T03:23:23.197Z,48.35
2018-07-08T03:25:50.730Z,48.33
2018-07-08T03:28:18.314Z,48.57
2018-07-08T03:30:45.899Z,48.46
2018-07-08T03:33:13.462Z,48.46
2018-07-08T03:35:41.019Z,48.56
2018-07-08T03:38:08.601Z,48.80
2018-07-08T03:40:36.134Z,48.25
2018-07-08T03:43:03.671Z,48.07
2018-07-08T03:45:31.253Z,48.52
2018-07-08T03:47:58.810Z,48.81
2018-07-08T03:50:26.350Z,48.28
2018-07-08T03:52:53.971Z,49.39
2018-07-08T03:55:21.510Z,48.95
2018-07-08T03:57:49.114Z,48.83
2018-07-08T04:00:16.716Z,48.60
2018-07-08T04:02:44.305Z,47.72
2018-07-08T04:05:11.839Z,47.94
2018-07-08T04:07:39.445Z,48.67
2018-07-08T04:10:07.036Z,48.42
2018-07-08T04:12:34.571Z,48.11
2018-07-08T04:15:02.166Z,48.17
2018-07-08T04:17:29.687Z,48.22
2018-07-08T04:19:57.260Z,48.07
2018-07-08T04:22:24.839Z,48.23
2018-07-08T04:24:52.370Z,47.97
2018-07-08T04:27:19.958Z,47.57
2018-07-08T04:29:47.538Z,47.39
2018-07-08T04:32:15.068Z,47.98
2018-07-08T04:34:42.627Z,47.88
2018-07-08T04:37:10.184Z,47.95
2018-07-08T04:39:37.709Z,48.21
2018-07-08T04:42:05.245Z,48.76
2018-07-08T04:44:32.902Z,49.08
2018-07-08T04:47:00.437Z,48.83
2018-07-08T04:49:27.999Z,49.40
2018-07-08T04:51:55.673Z,49.60
2018-07-08T04:54:23.235Z,49.25
2018-07-08T04:56:50.766Z,50.12
2018-07-08T04:59:18.338Z,49.84
2018-07-08T05:01:45.858Z,49.73
2018-07-08T05:04:13.370Z,49.62
2018-07-08T05:06:40.930Z,49.39
2018-07-08T05:09:08.474Z,49.54
2018-07-08T05:11:35.987Z,49.68
2018-07-08T05:14:03.575Z,49.73
2018-07-08T05:16:31.126Z,50.12
2018-07-08T05:18:58.649Z,49.93
2018-07-08T05:21:26.213Z,49.90
2018-07-08T05:23:53.750Z,49.44
2018-07-08T05:26:21.299Z,49.07
2018-07-08T05:28:48.883Z,49.00
2018-07-08T05:31:16.414Z,49.29
2018-07-08T05:33:43.948Z,49.21
2018-07-08T05:36:11.534Z,49.52
2018-07-08T05:38:39.122Z,49.26
2018-07-08T05:41:06.690Z,49.15
2018-07-08T05:43:34.266Z,48.58
2018-07-08T05:46:01.814Z,48.64
2018-07-08T05:48:29.421Z,48.30
2018-07-08T05:50:56.989Z,47.97
2018-07-08T05:53:24.502Z,47.59
2018-07-08T05:55:52.021Z,47.80
2018-07-08T05:58:19.599Z,47.74
2018-07-08T06:00:47.129Z,48.28
2018-07-08T06:03:16.055Z,47.81
2018-07-08T06:05:43.616Z,47.82
2018-07-08T06:08:11.177Z,47.75
2018-07-08T06:10:38.694Z,47.65
2018-07-08T06:13:06.438Z,47.85
2018-07-08T06:15:33.969Z,47.45
2018-07-08T06:18:01.488Z,47.35
2018-07-08T06:20:29.085Z,47.43
2018-07-08T06:22:56.648Z,47.24
2018-07-08T06:25:24.342Z,47.10
2018-07-08T06:27:51.910Z,47.29
2018-07-08T06:30:19.467Z,47.03
2018-07-08T06:32:47.029Z,46.41
2018-07-08T06:35:14.630Z,47.04
2018-07-08T06:37:42.141Z,46.87
2018-07-08T06:40:09.694Z,46.46
2018-07-08T06:42:37.358Z,46.22
2018-07-08T06:45:05.123Z,46.68
2018-07-08T06:47:32.661Z,46.45
2018-07-08T06:50:00.254Z,46.17
2018-07-08T06:52:27.816Z,47.12
2018-07-08T06:54:55.367Z,46.46
2018-07-08T06:57:22.929Z,46.50
2018-07-08T06:59:50.454Z,45.52
2018-07-08T07:02:18.016Z,45.45
2018-07-08T07:04:45.619Z,45.20
2018-07-08T07:07:13.185Z,45.47
2018-07-08T07:09:40.718Z,44.79
2018-07-08T07:12:08.306Z,44.41
2018-07-08T07:14:35.862Z,43.23
2018-07-08T07:17:03.507Z,43.15
2018-07-08T07:19:31.065Z,42.75
2018-07-08T07:21:58.705Z,41.94
2018-07-08T07:24:26.240Z,41.88
2018-07-08T07:26:53.848Z,42.57
2018-07-08T07:29:21.395Z,42.11
2018-07-08T07:31:49.015Z,41.84
2018-07-08T07:34:16.602Z,41.60
2018-07-08T07:36:44.798Z,40.42
2018-07-08T07:39:12.356Z,40.18
2018-07-08T07:41:39.966Z,38.80
2018-07-08T07:44:07.519Z,40.04
2018-07-08T07:46:35.036Z,39.10
2018-07-08T07:49:02.670Z,39.42
2018-07-08T07:51:30.191Z,40.21
2018-07-08T07:53:57.714Z,40.03
2018-07-08T07:56:25.292Z,40.15
2018-07-08T07:58:52.916Z,40.32
2018-07-08T08:01:20.460Z,40.57
2018-07-08T08:03:48.024Z,40.13
2018-07-08T08:06:15.553Z,40.13
2018-07-08T08:08:43.057Z,40.10
2018-07-08T08:11:10.586Z,38.70
2018-07-08T08:13:48.259Z,38.64
2018-07-08T08:16:16.382Z,37.44
2018-07-08T08:18:44.025Z,37.88
2018-07-08T08:21:11.583Z,37.67
2018-07-08T08:23:39.170Z,37.65
2018-07-08T08:26:06.738Z,37.46
2018-07-08T08:28:34.295Z,37.89
2018-07-08T08:31:01.962Z,37.96
2018-07-08T08:33:29.640Z,37.86
2018-07-08T08:35:57.169Z,36.85
2018-07-08T08:38:25.265Z,36.23
2018-07-08T08:40:52.795Z,35.80
2018-07-08T08:43:20.335Z,35.25
2018-07-08T08:45:47.890Z,35.28
2018-07-08T08:48:15.448Z,35.41
2018-07-08T08:50:42.984Z,35.45
2018-07-08T08:53:10.547Z,35.51
2018-07-08T08:55:38.105Z,36.74
2018-07-08T08:58:05.633Z,36.94
2018-07-08T09:00:33.235Z,36.01
2018-07-08T09:03:00.762Z,36.05
2018-07-08T09:05:28.282Z,35.36
2018-07-08T09:07:55.854Z,34.68
2018-07-08T09:10:23.398Z,34.77
2018-07-08T09:12:51.306Z,34.41
2018-07-08T09:15:18.978Z,34.54
2018-07-08T09:17:46.510Z,33.46
2018-07-08T09:20:14.082Z,33.80
2018-07-08T09:22:41.657Z,32.50
2018-07-08T09:25:09.231Z,32.40
2018-07-08T09:27:36.767Z,32.21
2018-07-08T09:30:04.472Z,31.50
2018-07-08T09:32:31.970Z,31.12
2018-07-08T09:34:59.510Z,31.87
2018-07-08T09:37:27.086Z,31.53
2018-07-08T09:39:54.627Z,30.82
2018-07-08T09:42:22.167Z,30.65
2018-07-08T09:44:49.717Z,31.54
2018-07-08T09:47:17.237Z,32.22
2018-07-08T09:49:44.769Z,32.50
2018-07-08T09:52:12.306Z,32.24
2018-07-08T09:54:39.843Z,32.46
2018-07-08T09:57:07.394Z,33.02
2018-07-08T09:59:34.966Z,34.36
2018-07-08T10:02:02.466Z,34.14
2018-07-08T10:04:30.010Z,33.09
2018-07-08T10:06:57.583Z,32.48
2018-07-08T10:09:25.478Z,31.03
2018-07-08T10:11:53.042Z,29.68
2018-07-08T10:14:21.734Z,30.47
2018-07-08T10:16:49.290Z,29.75
2018-07-08T10:19:17.850Z,28.88
2018-07-08T10:21:45.473Z,29.53
2018-07-08T10:24:13.010Z,30.30
2018-07-08T10:26:40.574Z,30.87
2018-07-08T10:29:08.623Z,31.37
2018-07-08T10:31:49.106Z,31.35
2018-07-08T10:34:16.964Z,30.99
2018-07-08T10:36:44.604Z,31.69
2018-07-08T10:39:13.132Z,32.49
2018-07-08T10:41:41.047Z,33.44
2018-07-08T10:44:08.694Z,33.67
2018-07-08T10:46:36.255Z,33.45
2018-07-08T10:49:03.889Z,33.55
2018-07-08T10:51:31.395Z,34.10
2018-07-08T10:53:58.986Z,34.77
2018-07-08T10:56:26.564Z,35.31
2018-07-08T10:58:54.094Z,34.96
2018-07-08T11:01:21.641Z,35.45
2018-07-08T11:03:49.278Z,35.96
2018-07-08T11:06:16.818Z,36.10
2018-07-08T11:08:44.336Z,36.31
2018-07-08T11:11:11.934Z,36.42
2018-07-08T11:13:39.580Z,36.64
2018-07-08T11:16:07.101Z,37.18
2018-07-08T11:18:34.690Z,36.73
2018-07-08T11:21:02.266Z,37.57
2018-07-08T11:23:29.800Z,37.81
2018-07-08T11:25:57.365Z,38.21
2018-07-08T11:28:24.916Z,38.00
2018-07-08T11:30:52.526Z,39.04
2018-07-08T11:33:20.115Z,39.00
2018-07-08T11:35:47.660Z,39.03
2018-07-08T11:38:15.246Z,38.69
2018-07-08T11:40:42.838Z,38.92
2018-07-08T11:43:10.360Z,38.46
2018-07-08T11:45:37.911Z,37.86
2018-07-08T11:48:05.517Z,37.44
2018-07-08T11:50:33.158Z,37.56
2018-07-08T11:53:00.688Z,37.66
2018-07-08T11:55:28.308Z,38.12
2018-07-08T11:57:55.897Z,39.04
2018-07-08T12:00:23.473Z,38.93
2018-07-08T12:02:51.053Z,39.01
2018-07-08T12:05:18.638Z,38.82
2018-07-08T12:07:46.243Z,38.82
2018-07-08T12:10:13.828Z,37.79
2018-07-08T12:12:41.469Z,37.22
2018-07-08T12:15:09.034Z,37.04
2018-07-08T12:17:36.795Z,35.39
2018-07-08T12:20:04.369Z,36.11
2018-07-08T12:22:31.921Z,36.40
2018-07-08T12:24:59.795Z,37.34
2018-07-08T12:27:27.551Z,36.24
2018-07-08T12:29:55.186Z,36.57
2018-07-08T12:32:22.732Z,36.42
2018-07-08T12:34:50.542Z,36.22
2018-07-08T12:37:18.147Z,36.04
2018-07-08T12:39:45.751Z,35.88
2018-07-08T12:42:13.267Z,37.78
2018-07-08T12:44:41.043Z,37.93
2018-07-08T12:47:08.482Z,37.61
2018-07-08T12:49:36.080Z,34.71
2018-07-08T12:52:03.680Z,32.77
2018-07-08T12:54:31.262Z,30.07
2018-07-08T12:56:58.991Z,28.03
2018-07-08T12:59:26.509Z,26.14
2018-07-08T13:01:54.085Z,25.90
2018-07-08T13:04:21.870Z,29.26
2018-07-08T13:06:49.417Z,29.33
2018-07-08T13:09:17.093Z,30.77
2018-07-08T13:11:44.938Z,32.21
2018-07-08T13:14:12.421Z,30.81
2018-07-08T13:16:40.055Z,27.14
2018-07-08T13:19:07.569Z,25.45
2018-07-08T13:21:35.327Z,27.51
2018-07-08T13:24:02.986Z,29.43
2018-07-08T13:26:30.579Z,28.30
2018-07-08T13:28:58.071Z,29.98
2018-07-08T13:31:25.795Z,31.65
2018-07-08T13:33:53.343Z,30.36
2018-07-08T13:36:20.933Z,28.00
2018-07-08T13:38:48.643Z,28.13
2018-07-08T13:41:16.214Z,29.54
2018-07-08T13:43:43.738Z,30.71
2018-07-08T13:46:11.374Z,27.04
2018-07-08T13:48:38.907Z,27.42
2018-07-08T13:51:06.763Z,29.89
2018-07-08T13:53:34.324Z,28.60
2018-07-08T13:56:01.866Z,31.35
2018-07-08T13:58:29.415Z,31.64
2018-07-08T14:00:57.001Z,31.94
2018-07-08T14:03:24.545Z,33.54
2018-07-08T14:05:52.191Z,31.98
2018-07-08T14:08:19.739Z,26.85
2018-07-08T14:10:47.544Z,24.17
2018-07-08T14:13:15.348Z,24.68
2018-07-08T14:15:44.066Z,27.51
2018-07-08T14:18:11.899Z,29.32
2018-07-08T14:20:39.752Z,30.13
2018-07-08T14:23:07.336Z,30.22
2018-07-08T14:25:35.081Z,30.50
2018-07-08T14:28:02.758Z,31.22
2018-07-08T14:30:30.401Z,31.58
2018-07-08T14:32:58.087Z,32.16
2018-07-08T14:35:25.682Z,31.22
2018-07-08T14:37:53.634Z,29.93
2018-07-08T14:40:21.181Z,28.65
2018-07-08T14:42:48.795Z,26.54
2018-07-08T14:45:16.677Z,27.10
2018-07-08T14:47:44.370Z,24.90
2018-07-08T14:50:12.011Z,24.98
2018-07-08T14:52:39.684Z,24.17
2018-07-08T14:55:07.312Z,25.53
2018-07-08T14:57:35.036Z,28.32
2018-07-08T15:00:02.986Z,29.47
2018-07-08T15:02:30.787Z,30.48
2018-07-08T15:04:58.467Z,31.72
2018-07-08T15:07:26.246Z,32.20
2018-07-08T15:09:53.976Z,33.46
2018-07-08T15:12:21.591Z,33.35
2018-07-08T15:14:49.244Z,33.01
2018-07-08T15:17:17.010Z,33.02
2018-07-08T15:19:44.555Z,34.34
2018-07-08T15:22:12.246Z,33.92
2018-07-08T15:24:39.870Z,33.75
2018-07-08T15:27:07.411Z,33.79
2018-07-08T15:29:35.129Z,33.39
2018-07-08T15:32:02.739Z,34.07
2018-07-08T15:34:30.346Z,34.92
2018-07-08T15:36:58.186Z,34.82
2018-07-08T15:39:25.720Z,35.28
2018-07-08T15:41:53.464Z,34.63
2018-07-08T15:44:21.558Z,35.26
2018-07-08T15:46:49.219Z,34.28
2018-07-08T15:49:16.766Z,35.08
2018-07-08T15:51:44.330Z,34.58
2018-07-08T15:54:12.047Z,34.88
2018-07-08T15:56:39.702Z,35.41
2018-07-08T15:59:07.590Z,35.20
2018-07-08T16:01:35.349Z,35.97
2018-07-08T16:04:02.994Z,36.64
2018-07-08T16:06:30.591Z,36.74
2018-07-08T16:08:58.317Z,37.51
2018-07-08T16:11:26.242Z,37.26
2018-07-08T16:13:54.215Z,37.10
2018-07-08T16:16:21.958Z,37.88
2018-07-08T16:18:49.698Z,38.06
2018-07-08T16:21:17.495Z,38.38
2018-07-08T16:23:45.419Z,37.70
2018-07-08T16:26:13.016Z,36.64
2018-07-08T16:28:40.983Z,37.24
2018-07-08T16:31:08.649Z,35.47
2018-07-08T16:33:36.810Z,36.37
2018-07-08T16:36:05.216Z,35.95
2018-07-08T16:38:34.137Z,35.78
2018-07-08T16:41:01.790Z,35.14
2018-07-08T16:43:29.540Z,34.87
2018-07-08T16:45:57.151Z,34.73
2018-07-08T16:48:25.172Z,35.06
2018-07-08T16:50:52.874Z,35.23
2018-07-08T16:53:20.521Z,35.61
2018-07-08T16:55:48.355Z,35.82
2018-07-08T16:58:16.124Z,36.37
2018-07-08T17:00:43.694Z,36.03
2018-07-08T17:03:11.455Z,36.64
2018-07-08T17:05:39.035Z,37.01
2018-07-08T17:08:06.602Z,37.41
2018-07-08T17:10:34.511Z,37.46
2018-07-08T17:13:02.063Z,37.98
2018-07-08T17:15:29.802Z,38.36
2018-07-08T17:17:57.415Z,38.59
2018-07-08T17:20:25.065Z,38.16
2018-07-08T17:22:52.712Z,38.87
2018-07-08T17:25:20.245Z,38.22
2018-07-08T17:27:48.027Z,39.07
2018-07-08T17:30:16.329Z,39.01
2018-07-08T17:32:44.057Z,39.04
2018-07-08T17:35:13.695Z,39.50
2018-07-08T17:37:41.511Z,39.63
2018-07-08T17:40:09.041Z,39.82
2018-07-08T17:42:36.671Z,40.51
2018-07-08T17:45:04.766Z,40.12
2018-07-08T17:47:32.406Z,40.29
2018-07-08T17:50:00.238Z,40.12
2018-07-08T17:52:27.988Z,40.48
2018-07-08T17:54:55.628Z,41.33
2018-07-08T17:57:23.337Z,40.96
2018-07-08T17:59:50.942Z,41.17
2018-07-08T18:02:18.532Z,41.68
2018-07-08T18:04:46.343Z,41.83
2018-07-08T18:07:13.894Z,42.40
2018-07-08T18:09:41.563Z,41.53
2018-07-08T18:12:09.172Z,42.21
2018-07-08T18:14:36.871Z,42.22
2018-07-08T18:17:04.622Z,41.96
2018-07-08T18:19:33.293Z,42.01
2018-07-08T18:22:00.884Z,42.36
2018-07-08T18:24:28.639Z,42.53
2018-07-08T18:26:56.238Z,42.04
2018-07-08T18:29:23.930Z,42.48
2018-07-08T18:31:51.484Z,42.74
2018-07-08T18:34:19.338Z,42.82
2018-07-08T18:36:46.939Z,42.90
2018-07-08T18:39:14.935Z,43.20
2018-07-08T18:41:42.623Z,43.32
2018-07-08T18:44:10.321Z,43.60
2018-07-08T18:46:38.322Z,43.32
2018-07-08T18:49:06.098Z,43.97
2018-07-08T18:51:33.846Z,43.75
2018-07-08T18:54:01.731Z,43.53
2018-07-08T18:56:29.354Z,43.48
2018-07-08T18:58:57.090Z,43.58
2018-07-08T19:01:25.312Z,44.29
2018-07-08T19:03:53.409Z,44.34
2018-07-08T19:06:21.086Z,44.29
2018-07-08T19:08:49.921Z,44.58
2018-07-08T19:11:17.500Z,44.88
2018-07-08T19:13:45.230Z,45.68
2018-07-08T19:16:12.886Z,45.74
2018-07-08T19:18:40.502Z,46.61
2018-07-08T19:21:08.216Z,47.09
2018-07-08T19:23:35.981Z,46.77
2018-07-08T19:26:03.641Z,47.71
2018-07-08T19:28:31.351Z,47.74
2018-07-08T19:30:58.945Z,48.23
2018-07-08T19:33:26.647Z,47.90
2018-07-08T19:35:54.183Z,48.59
2018-07-08T19:38:21.711Z,48.98
2018-07-08T19:40:49.748Z,49.12
2018-07-08T19:43:17.292Z,49.36
2018-07-08T19:45:45.016Z,49.32
2018-07-08T19:48:12.717Z,49.35
2018-07-08T19:50:40.335Z,49.86
2018-07-08T19:53:09.074Z,49.76
2018-07-08T19:55:36.847Z,50.12
2018-07-08T19:58:04.417Z,49.78
2018-07-08T20:00:32.241Z,50.36
2018-07-08T20:03:00.396Z,50.42
2018-07-08T20:05:28.096Z,50.17
2018-07-08T20:07:56.115Z,50.14
2018-07-08T20:10:23.757Z,50.55
2018-07-08T20:12:51.511Z,50.26
2018-07-08T20:15:19.220Z,50.32
2018-07-08T20:17:46.890Z,50.65
2018-07-08T20:20:14.702Z,50.29
2018-07-08T20:22:42.297Z,50.75
2018-07-08T20:25:10.078Z,50.55
2018-07-08T20:27:37.930Z,50.45
2018-07-08T20:30:05.625Z,50.49
2018-07-08T20:32:33.245Z,50.90
2018-07-08T20:35:01.012Z,51.14
2018-07-08T20:37:28.657Z,50.94
2018-07-08T20:39:56.417Z,50.86
2018-07-08T20:42:24.028Z,51.38
2018-07-08T20:44:51.649Z,50.95
2018-07-08T20:47:19.538Z,51.25
2018-07-08T20:49:47.197Z,50.86
2018-07-08T20:52:14.961Z,51.54
2018-07-08T20:54:42.637Z,51.04
2018-07-08T20:57:10.224Z,50.87
2018-07-08T20:59:37.974Z,50.51
2018-07-08T21:02:05.575Z,50.84
2018-07-08T21:04:33.298Z,50.57
2018-07-08T21:07:00.909Z,51.04
2018-07-08T21:09:28.593Z,51.17
2018-07-08T21:11:56.297Z,51.81
2018-07-08T21:14:23.886Z,51.92
2018-07-08T21:16:51.527Z,52.41
2018-07-08T21:19:19.438Z,51.87
2018-07-08T21:21:46.983Z,52.12
2018-07-08T21:24:15.319Z,52.29
2018-07-08T21:26:43.016Z,52.71
2018-07-08T21:29:10.663Z,52.56
2018-07-08T21:31:39.019Z,52.81
2018-07-08T21:34:06.578Z,53.08
2018-07-08T21:36:34.238Z,52.64
2018-07-08T21:39:02.107Z,53.19
2018-07-08T21:41:29.830Z,53.03
2018-07-08T21:43:57.459Z,52.75
2018-07-08T21:46:25.140Z,53.24
2018-07-08T21:48:52.706Z,53.21
2018-07-08T21:51:20.407Z,53.22
2018-07-08T21:53:47.966Z,52.76
2018-07-08T21:56:15.554Z,53.43
2018-07-08T21:58:43.547Z,53.02
2018-07-08T22:01:14.210Z,53.44
2018-07-08T22:03:42.262Z,53.06
2018-07-08T22:06:09.870Z,53.36
2018-07-08T22:08:37.641Z,53.40
2018-07-08T22:11:07.114Z,52.91
2018-07-08T22:13:34.993Z,52.95
2018-07-08T22:16:02.862Z,52.68
2018-07-08T22:18:30.862Z,53.28
2018-07-08T22:20:58.817Z,53.12
2018-07-08T22:23:26.550Z,52.47
2018-07-08T22:25:54.306Z,52.16
2018-07-08T22:28:21.907Z,52.44
2018-07-08T22:30:49.707Z,52.41
2018-07-08T22:33:18.151Z,52.60
2018-07-08T22:35:45.786Z,53.42
2018-07-08T22:38:13.497Z,53.49
2018-07-08T22:40:41.061Z,53.04
2018-07-08T22:43:08.781Z,53.34
2018-07-08T22:45:36.420Z,53.20
2018-07-08T22:48:04.142Z,53.23
2018-07-08T22:50:32.233Z,53.34
2018-07-08T22:52:59.778Z,53.99
2018-07-08T22:55:27.409Z,53.43
2018-07-08T22:57:55.123Z,53.32
2018-07-08T23:00:33.982Z,53.59
2018-07-08T23:04:10.922Z,53.80
2018-07-08T23:06:38.659Z,53.93
2018-07-08T23:09:06.330Z,53.82
2018-07-08T23:11:33.888Z,54.10
2018-07-08T23:14:01.709Z,53.73
2018-07-08T23:16:29.370Z,53.83
2018-07-08T23:18:57.114Z,54.21
2018-07-08T23:21:25.033Z,54.26
2018-07-08T23:23:52.595Z,54.40
2018-07-08T23:26:20.426Z,54.08
2018-07-08T23:28:48.010Z,54.31
2018-07-08T23:31:15.593Z,54.32
2018-07-08T23:33:43.313Z,54.03
2018-07-08T23:36:11.342Z,53.63
2018-07-08T23:38:39.093Z,53.58
2018-07-08T23:41:07.870Z,54.03
2018-07-08T23:43:35.450Z,53.91
2018-07-08T23:46:03.602Z,55.08
2018-07-08T23:48:31.682Z,56.01
2018-07-08T23:50:59.279Z,55.48
2018-07-08T23:53:27.064Z,54.86
2018-07-08T23:55:54.686Z,56.63
2018-07-08T23:58:22.286Z,56.64
